Main page
METAR-TAF:

METAR-TAF

Airports :

Oban, Scotland

Oban Airport

latitude: 56-27-49N, longitude: 5-24-00W, elevation: 7 m

Current weather observation

The report was made 10 hours and 48 minutes ago, at 15:20 UTC
Wind 8 kt from the Southeast
Temperature 17°C
Humidity 63%
Pressure 1004 hPa
Visibility 10 km or more
Overcast at a height of 4300 ft

METAR: EGEO 281520Z 13008KT 9999 OVC043 17/10 Q1004

Time: 03:08 (02:08 UTC)

Forecast

The report was made 12 hours and 8 minutes ago, at 14:00 UTC
Forecast valid from 28 at 15 UTC to 28 at 17 UTC
Wind 9 kt from the East
Visibility 10 km or more
Scattered clouds at a height of 4500 ft

TAF: EGEO 281400Z 2815/2817 10009KT 9999 SCT045

Weather observations and forecasts of more than 4000 airports (METAR and TAF reports).

The available stations are represented by yellow and red dots on the map.

Hover mouse over dot to see the name of the station.

Then click to see weather observations and forecasts.

To change the map : click on the green buttons with a black cross to zoom in, on the green button with a dash to zoom out, or on the green arrows for adjacent maps.


METAR-TAF: